Terminal Aerodrome Forecast
Issued by NWS

Home | Current Version | Previous Version | Text Only | Print | Product List | Glossary On
Versions: 1 2 3 4 5 6 7 8 9 10 11 12 13 14 15 16 17 18 19 20
000
FTUS44 KLZK 261100 RRA
TAFBPK
TAF
KBPK 261140Z 2612/2712 19006KT P6SM BKN025
      TEMPO 2612/2615 OVC018
     FM261500 22008KT P6SM BKN025
     FM261800 24008KT P6SM BKN250
     FM270000 17004KT P6SM BKN250 PROB30 2706/2712 6SM -TSRA
      BKN040CB=

USA.gov is the U.S. government's official web portal to all federal, state and local government web resources and services.